createdAt,value
2017-12-12T00:02:15.053Z,7.60
2017-12-12T00:04:42.712Z,7.70
2017-12-12T00:07:10.333Z,7.60
2017-12-12T00:09:37.949Z,7.60
2017-12-12T00:12:05.589Z,7.70
2017-12-12T00:14:33.203Z,7.70
2017-12-12T00:17:00.850Z,7.70
2017-12-12T00:19:29.308Z,7.60
2017-12-12T00:21:56.949Z,7.60
2017-12-12T00:24:24.604Z,7.50
2017-12-12T00:26:52.227Z,7.40
2017-12-12T00:29:19.885Z,7.40
2017-12-12T00:31:47.506Z,7.30
2017-12-12T00:34:15.148Z,7.30
2017-12-12T00:36:42.790Z,7.30
2017-12-12T00:39:10.401Z,7.20
2017-12-12T00:41:38.806Z,7.30
2017-12-12T00:44:06.492Z,7.20
2017-12-12T00:46:34.106Z,7.30
2017-12-12T00:49:01.766Z,7.30
2017-12-12T00:51:29.394Z,7.30
2017-12-12T00:53:57.038Z,7.40
2017-12-12T00:56:24.645Z,7.50
2017-12-12T00:58:52.286Z,7.60
2017-12-12T01:01:20.714Z,7.90
2017-12-12T01:03:48.342Z,7.90
2017-12-12T01:06:16.018Z,8.00
2017-12-12T01:08:43.719Z,8.10
2017-12-12T01:11:11.338Z,8.20
2017-12-12T01:13:39.776Z,8.20
2017-12-12T01:16:07.397Z,8.20
2017-12-12T01:18:35.046Z,8.20
2017-12-12T01:21:02.675Z,8.30
2017-12-12T01:23:30.290Z,8.30
2017-12-12T01:25:59.457Z,8.40
2017-12-12T01:28:27.123Z,8.40
2017-12-12T01:30:55.552Z,8.40
2017-12-12T01:33:23.159Z,8.30
2017-12-12T01:35:50.809Z,8.40
2017-12-12T01:38:18.577Z,8.30
2017-12-12T01:40:46.204Z,8.40
2017-12-12T01:43:14.132Z,8.40
2017-12-12T01:45:41.746Z,8.40
2017-12-12T01:48:09.618Z,8.40
2017-12-12T01:50:38.154Z,8.40
2017-12-12T01:53:05.765Z,8.40
2017-12-12T01:55:33.777Z,8.40
2017-12-12T01:58:01.411Z,8.40
2017-12-12T02:00:29.102Z,8.40
2017-12-12T02:02:56.746Z,8.40
2017-12-12T02:05:24.383Z,8.40
2017-12-12T02:07:52.819Z,8.40
2017-12-12T02:10:20.438Z,8.40
2017-12-12T02:12:48.105Z,8.40
2017-12-12T02:15:16.745Z,8.40
2017-12-12T02:17:44.439Z,8.50
2017-12-12T02:20:12.115Z,8.50
2017-12-12T02:22:40.495Z,8.60
2017-12-12T02:25:08.236Z,8.60
2017-12-12T02:27:35.895Z,8.60
2017-12-12T02:30:03.522Z,8.60
2017-12-12T02:32:31.165Z,8.60
2017-12-12T02:34:58.782Z,8.50
2017-12-12T02:37:26.402Z,8.50
2017-12-12T02:39:54.081Z,8.50
2017-12-12T02:42:22.495Z,8.50
2017-12-12T02:44:50.892Z,8.50
2017-12-12T02:47:19.116Z,8.50
2017-12-12T02:49:46.782Z,8.50
2017-12-12T02:52:14.873Z,8.50
2017-12-12T02:54:42.512Z,8.60
2017-12-12T02:57:10.160Z,8.50
2017-12-12T02:59:38.186Z,8.50
2017-12-12T03:02:05.795Z,8.50
2017-12-12T03:04:33.442Z,8.50
2017-12-12T03:07:01.051Z,8.40
2017-12-12T03:09:28.794Z,8.50
2017-12-12T03:11:56.453Z,8.40
2017-12-12T03:14:24.073Z,8.40
2017-12-12T03:16:51.714Z,8.50
2017-12-12T03:19:19.347Z,8.40
2017-12-12T03:21:47.008Z,8.40
2017-12-12T03:24:14.663Z,8.40
2017-12-12T03:26:42.276Z,8.40
2017-12-12T03:29:09.945Z,8.40
2017-12-12T03:31:37.574Z,8.30
2017-12-12T03:34:05.236Z,8.30
2017-12-12T03:36:32.870Z,8.30
2017-12-12T03:39:00.481Z,8.30
2017-12-12T03:41:28.929Z,8.30
2017-12-12T03:43:56.559Z,8.20
2017-12-12T03:46:24.205Z,8.30
2017-12-12T03:48:51.818Z,8.30
2017-12-12T03:51:19.548Z,8.30
2017-12-12T03:53:47.190Z,8.40
2017-12-12T03:56:14.814Z,8.30
2017-12-12T03:58:43.251Z,8.50
2017-12-12T04:01:10.872Z,8.40
2017-12-12T04:03:38.610Z,8.40
2017-12-12T04:06:06.262Z,8.40
2017-12-12T04:08:33.874Z,8.30
2017-12-12T04:11:02.286Z,8.40
2017-12-12T04:13:29.905Z,8.40
2017-12-12T04:15:57.527Z,8.30
2017-12-12T04:18:25.198Z,8.40
2017-12-12T04:20:52.809Z,8.30
2017-12-12T04:23:20.526Z,8.30
2017-12-12T04:25:48.242Z,8.30
2017-12-12T04:28:15.867Z,8.40
2017-12-12T04:30:44.294Z,8.30
2017-12-12T04:33:11.906Z,8.30
2017-12-12T04:35:39.674Z,8.20
2017-12-12T04:38:07.317Z,8.20
2017-12-12T04:40:34.927Z,8.20
2017-12-12T04:43:03.339Z,8.10
2017-12-12T04:45:30.966Z,8.10
2017-12-12T04:47:58.703Z,8.00
2017-12-12T04:50:26.362Z,7.90
2017-12-12T04:52:53.973Z,7.90
2017-12-12T04:55:22.383Z,7.80
2017-12-12T04:57:49.997Z,7.80
2017-12-12T05:00:18.318Z,7.80
2017-12-12T05:02:45.926Z,7.90
2017-12-12T05:05:14.078Z,7.80
2017-12-12T05:07:41.715Z,7.80
2017-12-12T05:10:09.398Z,7.80
2017-12-12T05:12:37.045Z,7.70
2017-12-12T05:15:04.674Z,7.70
2017-12-12T05:17:32.306Z,7.70
2017-12-12T05:20:00.030Z,7.70
2017-12-12T05:22:28.602Z,7.70
2017-12-12T05:24:57.000Z,7.70
2017-12-12T05:27:24.621Z,7.70
2017-12-12T05:29:52.242Z,7.80
2017-12-12T05:32:20.664Z,7.80
2017-12-12T05:34:48.437Z,7.80
2017-12-12T05:37:16.101Z,7.80
2017-12-12T05:39:43.722Z,7.80
2017-12-12T05:42:11.336Z,7.80
2017-12-12T05:44:39.986Z,7.80
2017-12-12T05:47:08.980Z,7.90
2017-12-12T05:49:36.686Z,7.80
2017-12-12T05:52:04.445Z,7.90
2017-12-12T05:54:34.033Z,8.00
2017-12-12T05:57:01.695Z,7.90
2017-12-12T05:59:30.086Z,8.00
2017-12-12T06:01:57.772Z,8.00
2017-12-12T06:04:25.431Z,8.10
2017-12-12T06:06:53.051Z,8.10
2017-12-12T06:09:20.694Z,8.20
2017-12-12T06:11:48.426Z,8.10
2017-12-12T06:14:16.069Z,8.10
2017-12-12T06:16:44.241Z,8.10
2017-12-12T06:19:11.868Z,8.20
2017-12-12T06:21:39.601Z,8.10
2017-12-12T06:24:07.998Z,8.10
2017-12-12T06:26:35.667Z,8.00
2017-12-12T06:29:03.286Z,8.10
2017-12-12T06:31:30.920Z,8.00
2017-12-12T06:33:58.685Z,8.10
2017-12-12T06:36:26.354Z,8.10
2017-12-12T06:38:54.016Z,8.10
2017-12-12T06:41:21.629Z,8.00
2017-12-12T06:43:49.337Z,8.00
2017-12-12T06:46:17.775Z,8.00
2017-12-12T06:48:45.390Z,8.00
2017-12-12T06:51:13.043Z,8.00
2017-12-12T06:53:40.684Z,7.90
2017-12-12T06:56:08.315Z,8.00
2017-12-12T06:58:35.950Z,7.90
2017-12-12T07:01:03.550Z,7.80
2017-12-12T07:03:31.202Z,7.60
2017-12-12T07:05:58.829Z,7.60
2017-12-12T07:08:26.445Z,7.50
2017-12-12T07:10:54.100Z,7.40
2017-12-12T07:13:21.705Z,7.40
2017-12-12T07:15:50.116Z,7.30
2017-12-12T07:18:17.739Z,7.20
2017-12-12T07:20:45.391Z,7.30
2017-12-12T07:23:13.033Z,7.10
2017-12-12T07:25:40.638Z,7.10
2017-12-12T07:28:08.493Z,7.00
2017-12-12T07:30:36.104Z,7.00
2017-12-12T07:33:04.635Z,6.90
2017-12-12T07:35:32.285Z,6.90
2017-12-12T07:37:59.913Z,6.90
2017-12-12T07:40:28.330Z,6.90
2017-12-12T07:42:55.950Z,6.90
2017-12-12T07:45:23.619Z,6.90
2017-12-12T07:47:51.337Z,6.90
2017-12-12T07:50:18.974Z,6.90
2017-12-12T07:52:47.018Z,6.80
2017-12-12T07:55:14.621Z,6.70
2017-12-12T07:57:42.230Z,6.60
2017-12-12T08:00:09.946Z,6.60
2017-12-12T08:02:37.561Z,6.50
2017-12-12T08:05:05.460Z,6.40
2017-12-12T08:07:33.843Z,6.40
2017-12-12T08:10:01.454Z,6.30
2017-12-12T08:12:29.102Z,6.30
2017-12-12T08:14:56.713Z,6.20
2017-12-12T08:17:24.341Z,6.20
2017-12-12T08:19:51.959Z,6.20
2017-12-12T08:22:19.702Z,6.20
2017-12-12T08:24:47.348Z,6.20
2017-12-12T08:27:15.726Z,6.30
2017-12-12T08:29:43.409Z,6.20
2017-12-12T08:32:11.019Z,6.20
2017-12-12T08:34:38.790Z,6.10
2017-12-12T08:37:07.008Z,6.10
2017-12-12T08:39:34.642Z,6.00
2017-12-12T08:42:02.283Z,5.90
2017-12-12T08:44:29.886Z,5.80
2017-12-12T08:46:57.503Z,5.80
2017-12-12T08:49:25.167Z,5.70
2017-12-12T08:51:52.796Z,5.60
2017-12-12T08:54:21.210Z,5.60
2017-12-12T08:56:48.821Z,5.50
2017-12-12T08:59:16.430Z,5.50
2017-12-12T09:01:44.102Z,5.60
2017-12-12T09:04:12.479Z,5.90
2017-12-12T09:06:40.133Z,5.80
2017-12-12T09:09:07.786Z,6.00
2017-12-12T09:11:35.398Z,5.80
2017-12-12T09:14:03.799Z,5.70
2017-12-12T09:16:32.223Z,5.70
2017-12-12T09:18:59.890Z,5.60
2017-12-12T09:21:27.497Z,5.50
2017-12-12T09:23:55.897Z,5.40
2017-12-12T09:26:23.535Z,5.40
2017-12-12T09:28:51.927Z,5.40
2017-12-12T09:31:19.701Z,5.30
2017-12-12T09:33:47.313Z,5.30
2017-12-12T09:36:14.917Z,5.20
2017-12-12T09:38:42.556Z,5.10
2017-12-12T09:41:10.179Z,5.10
2017-12-12T09:43:38.282Z,5.00
2017-12-12T09:46:06.662Z,4.90
2017-12-12T09:48:35.038Z,4.90
2017-12-12T09:51:02.683Z,4.90
2017-12-12T09:53:30.292Z,4.80
2017-12-12T09:55:57.943Z,4.90
2017-12-12T09:58:26.313Z,4.90
2017-12-12T10:00:54.686Z,4.80
2017-12-12T10:03:23.102Z,4.90
2017-12-12T10:05:50.714Z,4.90
2017-12-12T10:08:18.505Z,4.90
2017-12-12T10:10:46.144Z,4.90
2017-12-12T10:13:13.752Z,4.90
2017-12-12T10:15:41.438Z,5.00
2017-12-12T10:18:09.302Z,5.00
2017-12-12T10:20:36.939Z,5.10
2017-12-12T10:23:04.541Z,5.10
2017-12-12T10:25:32.152Z,5.10
2017-12-12T10:27:59.828Z,5.00
2017-12-12T10:30:27.434Z,5.10
2017-12-12T10:32:55.082Z,5.00
2017-12-12T10:35:23.296Z,5.10
2017-12-12T10:37:50.903Z,5.10
2017-12-12T10:40:18.694Z,5.10
2017-12-12T10:42:46.299Z,5.10
2017-12-12T10:45:14.718Z,5.30
2017-12-12T10:47:42.322Z,5.30
2017-12-12T10:50:09.935Z,5.30
2017-12-12T10:52:37.574Z,5.30
2017-12-12T10:55:05.267Z,5.40
2017-12-12T10:57:33.674Z,5.50
2017-12-12T11:00:01.290Z,5.50
2017-12-12T11:02:28.902Z,5.70
2017-12-12T11:04:56.541Z,5.80
2017-12-12T11:07:24.148Z,5.80
2017-12-12T11:09:52.583Z,5.60
2017-12-12T11:12:20.951Z,5.30
2017-12-12T11:14:48.674Z,5.20
2017-12-12T11:17:16.318Z,5.20
2017-12-12T11:19:44.819Z,5.20
2017-12-12T11:22:12.665Z,5.10
2017-12-12T11:24:40.269Z,5.20
2017-12-12T11:27:08.114Z,5.20
2017-12-12T11:29:36.065Z,5.30
2017-12-12T11:32:04.463Z,5.20
2017-12-12T11:34:32.862Z,5.20
2017-12-12T11:37:00.510Z,5.10
2017-12-12T11:39:28.269Z,5.20
2017-12-12T11:41:55.906Z,5.10
2017-12-12T11:44:23.517Z,5.20
2017-12-12T11:46:51.946Z,5.10
2017-12-12T11:49:19.681Z,5.10
2017-12-12T11:51:47.298Z,5.00
2017-12-12T11:54:16.847Z,5.00
2017-12-12T11:56:44.458Z,5.00
2017-12-12T11:59:12.126Z,5.00
2017-12-12T12:01:39.752Z,5.10
2017-12-12T12:04:07.641Z,5.20
2017-12-12T12:06:35.274Z,5.30
2017-12-12T12:09:02.890Z,5.50
2017-12-12T12:11:30.524Z,5.60
2017-12-12T12:13:58.158Z,5.70
2017-12-12T12:16:25.769Z,5.70
2017-12-12T12:18:53.411Z,5.60
2017-12-12T12:21:21.038Z,5.50
2017-12-12T12:23:48.727Z,5.50
2017-12-12T12:26:27.793Z,5.50
2017-12-12T12:28:55.502Z,5.40
2017-12-12T12:31:23.116Z,5.60
2017-12-12T12:33:50.730Z,5.70
2017-12-12T12:36:18.575Z,5.80
2017-12-12T12:38:46.624Z,5.80
2017-12-12T12:41:14.260Z,5.80
2017-12-12T12:43:41.870Z,5.90
2017-12-12T12:46:09.598Z,5.90
2017-12-12T12:48:37.242Z,6.00
2017-12-12T12:51:04.874Z,6.20
2017-12-12T12:53:32.577Z,6.20
2017-12-12T12:56:01.014Z,6.20
2017-12-12T12:58:29.187Z,6.20
2017-12-12T13:00:57.610Z,5.80
2017-12-12T13:03:26.177Z,5.80
2017-12-12T13:05:53.817Z,5.90
2017-12-12T13:08:21.450Z,5.90
2017-12-12T13:10:49.060Z,6.00
2017-12-12T13:13:17.463Z,5.90
2017-12-12T13:15:45.067Z,5.80
2017-12-12T13:18:12.710Z,5.80
2017-12-12T13:20:40.313Z,6.10
2017-12-12T13:23:07.939Z,6.40
2017-12-12T13:25:35.586Z,6.70
2017-12-12T13:28:03.201Z,6.70
2017-12-12T13:30:31.617Z,6.50
2017-12-12T13:32:59.295Z,6.50
2017-12-12T13:35:26.905Z,6.00
2017-12-12T13:37:55.433Z,5.60
2017-12-12T13:40:24.773Z,5.50
2017-12-12T13:42:52.411Z,5.50
2017-12-12T13:45:20.027Z,5.40
2017-12-12T13:47:47.813Z,5.30
2017-12-12T13:50:15.470Z,5.30
2017-12-12T13:52:43.078Z,5.30
2017-12-12T13:55:10.713Z,5.30
2017-12-12T13:57:38.393Z,5.30
2017-12-12T14:00:06.019Z,5.30
2017-12-12T14:02:33.670Z,5.10
2017-12-12T14:05:01.286Z,5.00
2017-12-12T14:07:29.760Z,5.00
2017-12-12T14:09:58.190Z,4.90
2017-12-12T14:12:25.802Z,4.80
2017-12-12T14:14:53.446Z,4.90
2017-12-12T14:17:21.053Z,4.90
2017-12-12T14:19:49.513Z,4.80
2017-12-12T14:22:17.890Z,4.90
2017-12-12T14:24:46.444Z,4.80
2017-12-12T14:27:14.105Z,4.90
2017-12-12T14:29:42.496Z,4.90
2017-12-12T14:32:10.411Z,4.80
2017-12-12T14:34:38.141Z,4.90
2017-12-12T14:37:05.745Z,4.90
2017-12-12T14:39:33.402Z,4.90
2017-12-12T14:42:01.001Z,4.90
2017-12-12T14:44:29.586Z,4.80
2017-12-12T14:46:57.950Z,4.80
2017-12-12T14:49:25.560Z,4.70
2017-12-12T14:51:53.217Z,4.80
2017-12-12T14:54:20.826Z,4.70
2017-12-12T14:56:48.623Z,4.70
2017-12-12T14:59:17.007Z,4.60
2017-12-12T15:01:44.617Z,4.60
2017-12-12T15:04:12.263Z,4.70
2017-12-12T15:06:39.890Z,4.70
2017-12-12T15:09:07.534Z,4.60
2017-12-12T15:11:35.154Z,4.60
2017-12-12T15:14:02.808Z,4.50
2017-12-12T15:16:30.477Z,4.50
2017-12-12T15:18:58.249Z,4.50
2017-12-12T15:21:25.896Z,4.50
2017-12-12T15:23:53.549Z,4.50
2017-12-12T15:26:21.994Z,4.50
2017-12-12T15:28:49.769Z,4.40
2017-12-12T15:31:18.282Z,4.50
2017-12-12T15:33:45.926Z,4.40
2017-12-12T15:36:13.560Z,4.50
2017-12-12T15:38:41.185Z,4.50
2017-12-12T15:41:09.669Z,4.50
2017-12-12T15:43:37.467Z,4.50
2017-12-12T15:46:05.142Z,4.50
2017-12-12T15:48:33.550Z,4.50
2017-12-12T15:51:01.941Z,4.40
2017-12-12T15:53:29.582Z,4.50
2017-12-12T15:55:57.211Z,4.50
2017-12-12T15:58:24.864Z,4.50
2017-12-12T16:00:52.508Z,4.50
2017-12-12T16:03:20.118Z,4.50
2017-12-12T16:05:47.784Z,4.50
2017-12-12T16:08:15.393Z,4.50
2017-12-12T16:10:43.073Z,4.40
2017-12-12T16:13:10.709Z,4.30
2017-12-12T16:15:38.310Z,4.30
2017-12-12T16:18:05.991Z,4.30
2017-12-12T16:20:34.398Z,4.20
2017-12-12T16:23:02.046Z,4.10
2017-12-12T16:25:29.770Z,4.10
2017-12-12T16:27:58.765Z,4.00
2017-12-12T16:30:26.419Z,3.90
2017-12-12T16:32:54.295Z,3.90
2017-12-12T16:35:21.949Z,3.90
2017-12-12T16:37:49.611Z,3.80
2017-12-12T16:40:18.732Z,3.90
2017-12-12T16:42:46.463Z,3.90
2017-12-12T16:45:14.068Z,3.90
2017-12-12T16:47:41.705Z,3.80
2017-12-12T16:50:09.365Z,3.80
2017-12-12T16:52:36.985Z,3.80
2017-12-12T16:55:04.622Z,3.90
2017-12-12T16:57:33.123Z,3.90
2017-12-12T17:00:00.766Z,3.90
2017-12-12T17:02:28.534Z,3.90
2017-12-12T17:04:56.931Z,3.90
2017-12-12T17:07:24.663Z,3.90
2017-12-12T17:09:52.283Z,3.90
2017-12-12T17:12:22.687Z,4.00
2017-12-12T17:14:50.338Z,3.90
2017-12-12T17:17:17.954Z,3.90
2017-12-12T17:19:45.606Z,4.00
2017-12-12T17:22:13.297Z,4.00
2017-12-12T17:24:41.703Z,4.00
2017-12-12T17:27:09.364Z,4.00
2017-12-12T17:29:38.090Z,4.00
2017-12-12T17:32:05.966Z,3.90
2017-12-12T17:34:33.807Z,3.90
2017-12-12T17:37:03.164Z,3.90
2017-12-12T17:39:31.018Z,3.80
2017-12-12T17:41:59.381Z,3.70
2017-12-12T17:44:28.357Z,3.70
2017-12-12T17:46:56.026Z,3.60
2017-12-12T17:49:23.662Z,3.70
2017-12-12T17:51:51.270Z,3.60
2017-12-12T17:54:18.934Z,3.50
2017-12-12T17:56:47.513Z,3.50
2017-12-12T17:59:16.660Z,3.50
2017-12-12T18:01:47.286Z,3.50
2017-12-12T18:04:14.902Z,3.50
2017-12-12T18:06:42.549Z,3.40
2017-12-12T18:09:10.198Z,3.40
2017-12-12T18:11:37.837Z,3.40
2017-12-12T18:14:06.402Z,3.40
2017-12-12T18:16:37.796Z,3.40
2017-12-12T18:19:06.366Z,3.40
2017-12-12T18:21:35.666Z,3.30
2017-12-12T18:24:08.186Z,3.30
2017-12-12T18:26:35.850Z,3.40
2017-12-12T18:29:04.224Z,3.40
2017-12-12T18:31:33.626Z,3.40
2017-12-12T18:34:01.814Z,3.50
2017-12-12T18:36:29.614Z,3.50
2017-12-12T18:38:58.014Z,3.60
2017-12-12T18:41:25.630Z,3.60
2017-12-12T18:43:54.373Z,3.60
2017-12-12T18:46:22.012Z,3.60
2017-12-12T18:48:49.774Z,3.60
2017-12-12T18:51:17.431Z,3.60
2017-12-12T18:53:45.095Z,3.60
2017-12-12T18:56:13.535Z,3.60
2017-12-12T18:58:41.469Z,3.60
2017-12-12T19:01:09.998Z,3.50
2017-12-12T19:03:37.636Z,3.50
2017-12-12T19:06:05.886Z,3.50
2017-12-12T19:08:33.529Z,3.50
2017-12-12T19:11:01.150Z,3.50
2017-12-12T19:13:28.921Z,3.60
2017-12-12T19:15:56.585Z,3.60
2017-12-12T19:18:24.218Z,3.70
2017-12-12T19:20:52.634Z,3.80
2017-12-12T19:23:20.294Z,3.70
2017-12-12T19:25:47.924Z,3.80
2017-12-12T19:28:15.615Z,3.80
2017-12-12T19:30:44.033Z,3.90
2017-12-12T19:33:11.696Z,3.80
2017-12-12T19:35:40.398Z,3.90
2017-12-12T19:38:08.766Z,4.00
2017-12-12T19:40:37.230Z,3.90
2017-12-12T19:43:04.906Z,4.00
2017-12-12T19:45:32.564Z,4.00
2017-12-12T19:48:00.243Z,4.00
2017-12-12T19:50:27.856Z,4.00
2017-12-12T19:52:55.518Z,4.00
2017-12-12T19:55:23.197Z,4.00
2017-12-12T19:57:50.838Z,4.00
2017-12-12T20:00:18.715Z,4.10
2017-12-12T20:02:46.357Z,4.00
2017-12-12T20:05:14.781Z,4.00
2017-12-12T20:07:42.445Z,4.00
2017-12-12T20:10:10.150Z,4.00
2017-12-12T20:12:37.776Z,4.00
2017-12-12T20:15:05.458Z,4.00
2017-12-12T20:17:33.111Z,4.00
2017-12-12T20:20:00.810Z,4.00
2017-12-12T20:22:29.450Z,4.00
2017-12-12T20:24:57.079Z,4.00
2017-12-12T20:27:24.753Z,4.00
2017-12-12T20:29:53.530Z,4.00
2017-12-12T20:32:21.166Z,4.00
2017-12-12T20:34:48.851Z,4.00
2017-12-12T20:37:16.482Z,3.90
2017-12-12T20:39:47.912Z,4.00
2017-12-12T20:42:17.802Z,3.90
2017-12-12T20:44:45.418Z,4.00
2017-12-12T20:47:19.685Z,4.00
2017-12-12T20:49:47.337Z,3.90
2017-12-12T20:52:15.015Z,4.00
2017-12-12T20:54:42.715Z,4.00
2017-12-12T20:57:10.345Z,3.90
2017-12-12T20:59:43.637Z,3.90
2017-12-12T21:02:12.014Z,3.90
2017-12-12T21:04:39.702Z,3.90
2017-12-12T21:07:16.812Z,3.90
2017-12-12T21:09:45.662Z,3.80
2017-12-12T21:12:13.302Z,3.90
2017-12-12T21:14:41.833Z,3.90
2017-12-12T21:17:09.550Z,3.90
2017-12-12T21:19:38.052Z,3.90
2017-12-12T21:22:09.479Z,3.80
2017-12-12T21:24:38.275Z,3.80
2017-12-12T21:27:08.376Z,3.90
2017-12-12T21:29:38.757Z,3.90
2017-12-12T21:32:06.373Z,4.00
2017-12-12T21:34:36.631Z,3.90
2017-12-12T21:37:04.284Z,3.90
2017-12-12T21:39:31.914Z,4.00
2017-12-12T21:41:59.677Z,4.00
2017-12-12T21:44:31.174Z,4.00
2017-12-12T21:46:59.637Z,3.90
2017-12-12T21:49:28.162Z,4.00
2017-12-12T21:52:01.782Z,3.90
2017-12-12T21:54:30.974Z,4.00
2017-12-12T21:56:59.705Z,3.90
2017-12-12T21:59:33.838Z,4.00
2017-12-12T22:02:02.662Z,4.10
2017-12-12T22:04:31.300Z,4.00
2017-12-12T22:06:58.953Z,4.10
2017-12-12T22:09:26.571Z,4.10
2017-12-12T22:11:54.224Z,4.10
2017-12-12T22:14:27.487Z,4.10
2017-12-12T22:16:55.184Z,4.00
2017-12-12T22:19:22.797Z,4.10
2017-12-12T22:21:50.431Z,4.00
2017-12-12T22:24:18.846Z,4.00
2017-12-12T22:26:52.064Z,4.00
2017-12-12T22:29:20.385Z,4.00
2017-12-12T22:31:48.211Z,4.10
2017-12-12T22:34:15.834Z,4.00
2017-12-12T22:36:44.458Z,4.00
2017-12-12T22:39:12.095Z,4.00
2017-12-12T22:41:40.379Z,4.10
2017-12-12T22:44:08.050Z,4.00
2017-12-12T22:46:36.452Z,4.10
2017-12-12T22:49:04.095Z,4.00
2017-12-12T22:51:31.721Z,4.00
2017-12-12T22:54:00.150Z,4.00
2017-12-12T22:56:27.795Z,4.00
2017-12-12T22:58:55.418Z,3.90
2017-12-12T23:01:23.076Z,3.90
2017-12-12T23:03:50.704Z,3.90
2017-12-12T23:06:18.399Z,3.90
2017-12-12T23:08:46.061Z,3.80
2017-12-12T23:11:14.468Z,3.80
2017-12-12T23:13:42.118Z,3.70
2017-12-12T23:16:09.782Z,3.80
2017-12-12T23:18:37.522Z,3.80
2017-12-12T23:21:05.185Z,3.80
2017-12-12T23:23:32.801Z,3.70
2017-12-12T23:26:00.458Z,3.70
2017-12-12T23:28:28.083Z,3.60
2017-12-12T23:30:55.768Z,3.60
2017-12-12T23:33:23.460Z,3.60
2017-12-12T23:35:51.075Z,3.60
2017-12-12T23:38:20.031Z,3.60
2017-12-12T23:40:47.732Z,3.70
2017-12-12T23:43:15.385Z,3.70
2017-12-12T23:45:43.047Z,3.70
2017-12-12T23:48:10.679Z,3.70
2017-12-12T23:50:38.908Z,3.60
2017-12-12T23:53:07.718Z,3.60
2017-12-12T23:55:35.349Z,3.60
2017-12-12T23:58:03.792Z,3.60
